EST,Max TemperatureF,Mean TemperatureF,Min TemperatureF,Max Dew PointF,MeanDew PointF,Min DewpointF,Max Humidity, Mean Humidity, Min Humidity, Max Sea Level PressureIn, Mean Sea Level PressureIn, Min Sea Level PressureIn, Max VisibilityMiles, Mean VisibilityMiles, Min VisibilityMiles, Max Wind SpeedMPH, Mean Wind SpeedMPH, Max Gust SpeedMPH,PrecipitationIn, CloudCover, Events, WindDirDegrees
2013-1-1,43,40,36,43,39,31,100,96,77,30.11,30.01,29.92,10,4,0,12,2,21,0.35,8,Fog-Rain,279
2013-1-2,39,38,34,42,33,32,100,90,80,30.13,30.07,29.95,10,10,4,12,5,,0.02,8,Rain-Snow,344
2013-1-3,40,34,27,33,28,17,100,82,41,30.26,30.17,30.11,10,9,2,10,1,,0.00,3,,321
2013-1-4,37,29,22,28,24,21,95,76,62,30.34,30.30,30.26,10,10,10,12,4,17,0.00,2,,293
2013-1-5,45,32,20,33,25,20,96,73,41,30.37,30.29,30.20,10,10,7,8,2,,0.00,2,Rain-Snow,239
2013-1-6,40,37,34,38,35,32,100,93,76,30.23,30.15,30.09,10,7,0,10,5,16,0.01,8,Fog-Snow,274
2013-1-7,48,39,30,31,28,25,81,70,49,30.40,30.32,30.24,10,10,10,12,4,,0.00,3,,55
2013-1-8,54,42,29,31,27,24,85,61,31,30.39,30.32,30.28,10,10,10,13,5,,0.00,0,,95
2013-1-9,52,44,36,50,40,29,100,85,63,30.49,30.40,30.32,10,7,0,8,3,,0.14,5,Fog-Rain,101
2013-1-10,63,53,43,52,48,40,100,81,58,30.49,30.41,30.30,10,9,0,14,4,20,0.01,3,Fog,96
2013-1-11,61,56,51,61,53,46,100,91,65,30.28,30.16,30.09,10,8,0,15,5,16,0.09,8,Fog-Rain,101
2013-1-12,70,60,52,66,60,52,100,95,80,30.18,30.11,30.05,10,6,1,10,2,,0.09,5,Rain,248
2013-1-13,71,59,47,60,54,48,100,86,58,30.11,30.04,29.99,10,8,0,8,1,17,0.12,4,Fog-Rain,292
2013-1-14,59,49,39,59,49,40,100,100,99,30.26,30.15,30.07,10,7,1,9,3,16,1.46,8,Rain,34
2013-1-15,48,44,40,49,46,41,100,100,100,30.18,30.07,29.96,10,8,2,16,6,20,1.85,8,Rain,72
2013-1-16,55,50,44,55,49,44,100,100,98,30.03,29.98,29.90,10,8,2,10,4,,0.89,8,Rain,2
2013-1-17,45,39,33,46,38,32,100,97,83,30.22,30.03,29.95,10,7,0,13,4,16,0.98,8,Rain-Snow,64
2013-1-18,36,30,24,29,27,24,100,88,72,30.47,30.41,30.25,10,9,5,7,2,,0.13,2,,289
2013-1-19,44,32,21,32,28,21,100,87,63,30.39,30.28,30.14,10,10,7,9,2,,0.00,0,,226
2013-1-20,47,38,28,34,32,28,99,78,57,30.15,30.11,30.07,10,10,10,18,6,25,0.00,0,,278
2013-1-21,42,34,27,32,23,9,100,68,38,30.08,30.03,29.97,10,10,10,22,5,33,0.00,1,,282
2013-1-22,28,23,18,10,3,-1,54,41,30,30.21,30.15,30.05,10,10,10,16,10,26,0.00,2,,302
2013-1-23,37,28,19,24,12,0,71,52,38,30.27,30.17,30.03,10,10,10,15,7,20,0.00,5,,281
2013-1-24,38,29,20,30,14,3,74,56,37,30.39,30.23,30.00,10,10,10,17,9,25,0.00,3,,346
2013-1-25,32,26,21,33,22,8,100,83,52,30.33,30.13,30.03,10,5,0,15,10,18,0.19,6,Fog-Snow,117
2013-1-26,34,32,29,34,32,28,100,96,90,30.32,30.21,30.09,10,9,0,8,5,,0.00,7,Fog,291
2013-1-27,45,35,26,34,29,25,100,82,61,30.40,30.35,30.32,10,9,5,15,5,,0.00,3,Rain,89
2013-1-28,62,50,37,50,41,32,100,78,54,30.35,30.28,30.20,10,9,4,14,5,20,0.00,6,Rain,272
2013-1-29,69,56,43,55,50,44,100,80,50,30.23,30.13,29.96,10,7,0,13,2,17,0.02,4,Fog-Rain,240
2013-1-30,67,56,45,61,55,43,100,88,67,29.95,29.67,29.48,10,8,2,21,8,32,2.09,7,Rain-Thunderstorm,230
2013-1-31,43,38,30,43,26,21,95,74,56,29.94,29.83,29.49,10,9,2,21,14,36,0.02,8,Rain-Snow,285